Skip Navigation Links Skip Navigation Links

Current Weather

Phillips AAF, Aberdeen Proving Ground, Md.

For information only: do not use for flight planning or navigation.
Latest weather
Observation time Sunday, August 1, 2021 5:08 AM EDT
Local time Sunday, August 1, 2021 5:31 AM EDT
Flight conditions Marginal Visual Meteorological Conditions
Winds
Wind speed calm
Visibility 10 mi.
Sky condition
Ceiling 1,400 ft. broken clouds
Cloud layer broken clouds 1,400 ft.
Cloud layer broken clouds 1,900 ft.
Cloud layer overcast 13,000 ft.
Temperature 64°F
Dewpoint 64°F
Altimeter 29.88 in.Hg
Derived measurements
Relative humidity 100%
Density altitude 739 ft.
Sea-level pressure 29.89 in.Hg
Remarks
Fully automated report.
System requires maintenance.
Automated weather observing station with precipitation discriminator.
METAR KAPG 010908Z AUTO 00000KT 10SM BKN014 BKN019 OVC130 18/18 A2988 RMK AO2 SLP121 $

Settings

Location code

InnerDrive.Weather 4.0.6770.0 Release CLR 4.0.30319.42000
Copyright ©2018 Inner Drive Technology. All rights reserved. Portions Copyright ©1986-2018 David Braverman.

Find weather

Site navigation


Skip Navigation Links

Place info

Page info

PayPal - The safer, easier way to pay online!

Return home.

Copyright ©2021 Inner Drive Technology. Purveyors of fine, hand-crafted computer software. Page printed 2021-08-01T09:31:32 UTC.